createdAt,value
2022-08-26T00:02:12.692Z,6.50
2022-08-26T00:04:40.782Z,6.90
2022-08-26T00:07:09.078Z,7.35
2022-08-26T00:09:40.197Z,7.25
2022-08-26T00:14:37.517Z,6.95
2022-08-26T00:17:08.598Z,7.53
2022-08-26T00:19:36.593Z,6.60
2022-08-26T00:22:05.073Z,7.32
2022-08-26T00:27:00.906Z,6.38
2022-08-26T00:29:29.115Z,7.70
2022-08-26T00:31:59.843Z,6.97
2022-08-26T00:36:57.554Z,7.78
2022-08-26T00:39:25.426Z,7.28
2022-08-26T00:41:53.548Z,8.02
2022-08-26T00:44:21.624Z,7.95
2022-08-26T00:46:52.202Z,8.25
2022-08-26T00:49:35.599Z,7.43
2022-08-26T00:52:09.725Z,6.95
2022-08-26T00:54:46.738Z,8.10
2022-08-26T00:59:52.664Z,7.28
2022-08-26T01:02:21.647Z,7.50
2022-08-26T01:04:54.239Z,7.90
2022-08-26T01:07:27.549Z,7.30
2022-08-26T01:09:59.890Z,6.97
2022-08-26T01:12:30.265Z,7.68
2022-08-26T01:14:58.305Z,7.68
2022-08-26T01:17:26.660Z,8.10
2022-08-26T01:20:02.524Z,7.60
2022-08-26T01:22:40.906Z,8.05
2022-08-26T01:25:09.355Z,7.85
2022-08-26T01:30:06.754Z,8.13
2022-08-26T01:32:36.273Z,7.55
2022-08-26T01:37:39.007Z,7.97
2022-08-26T01:40:17.777Z,8.48
2022-08-26T01:42:46.754Z,8.05
2022-08-26T01:45:18.427Z,8.32
2022-08-26T01:47:49.728Z,8.68
2022-08-26T01:50:30.200Z,8.70
2022-08-26T01:53:01.632Z,8.23
2022-08-26T01:55:33.288Z,7.85
2022-08-26T01:58:05.549Z,8.68
2022-08-26T02:00:34.963Z,7.75
2022-08-26T02:03:17.802Z,8.75
2022-08-26T02:05:48.924Z,8.35
2022-08-26T02:08:25.321Z,9.20
2022-08-26T02:10:55.253Z,8.73
2022-08-26T02:13:25.789Z,8.77
2022-08-26T02:15:55.299Z,9.43
2022-08-26T02:18:23.704Z,8.60
2022-08-26T02:23:24.424Z,8.90
2022-08-26T02:28:34.264Z,9.05
2022-08-26T02:31:02.579Z,8.18
2022-08-26T02:35:59.231Z,8.63
2022-08-26T02:38:27.787Z,8.73
2022-08-26T02:40:57.004Z,8.63
2022-08-26T02:43:31.282Z,8.15
2022-08-26T02:48:31.230Z,8.38
2022-08-26T02:51:01.794Z,9.27
2022-08-26T02:53:31.830Z,8.35
2022-08-26T02:56:05.211Z,8.25
2022-08-26T03:01:01.701Z,8.05
2022-08-26T03:03:33.060Z,8.07
2022-08-26T03:06:01.047Z,8.07
2022-08-26T03:08:28.881Z,8.75
2022-08-26T03:10:56.699Z,8.23
2022-08-26T03:15:53.820Z,8.80
2022-08-26T03:20:49.602Z,8.60
2022-08-26T03:23:17.450Z,8.98
2022-08-26T03:25:50.351Z,8.88
2022-08-26T03:28:19.291Z,8.27
2022-08-26T03:30:48.102Z,8.15
2022-08-26T03:33:16.996Z,8.48
2022-08-26T03:38:15.856Z,8.55
2022-08-26T03:40:44.603Z,8.70
2022-08-26T03:43:15.971Z,9.43
2022-08-26T03:45:44.271Z,9.38
2022-08-26T03:48:15.183Z,8.93
2022-08-26T03:50:43.250Z,9.65
2022-08-26T03:53:13.168Z,10.60
2022-08-26T03:55:42.042Z,9.38
2022-08-26T03:58:11.593Z,9.20
2022-08-26T04:00:39.552Z,8.40
2022-08-26T04:03:09.990Z,9.95
2022-08-26T04:05:39.544Z,9.15
2022-08-26T04:08:07.868Z,8.70
2022-08-26T04:10:38.995Z,8.68
2022-08-26T04:13:07.246Z,8.70
2022-08-26T04:15:35.306Z,9.23
2022-08-26T04:18:03.108Z,8.98
2022-08-26T04:20:31.329Z,8.85
2022-08-26T04:23:00.536Z,8.90
2022-08-26T04:25:28.425Z,8.35
2022-08-26T04:27:56.255Z,8.90
2022-08-26T04:30:25.511Z,8.88
2022-08-26T04:32:53.433Z,9.88
2022-08-26T04:35:25.650Z,9.50
2022-08-26T04:37:54.188Z,8.80
2022-08-26T04:40:24.027Z,10.50
2022-08-26T04:42:53.672Z,9.00
2022-08-26T04:47:54.600Z,9.95
2022-08-26T04:50:23.680Z,9.45
2022-08-26T04:52:53.046Z,9.52
2022-08-26T04:55:20.868Z,9.50
2022-08-26T05:00:23.112Z,9.82
2022-08-26T05:02:51.522Z,10.45
2022-08-26T05:05:19.439Z,9.30
2022-08-26T05:10:16.494Z,8.70
2022-08-26T05:12:46.464Z,9.43
2022-08-26T05:17:43.752Z,9.38
2022-08-26T05:22:40.559Z,9.68
2022-08-26T05:25:09.173Z,9.27
2022-08-26T05:27:37.041Z,9.27
2022-08-26T05:30:06.562Z,9.43
2022-08-26T05:32:35.891Z,8.27
2022-08-26T05:35:04.098Z,9.43
2022-08-26T05:37:38.620Z,9.02
2022-08-26T05:40:07.359Z,9.10
2022-08-26T05:42:36.432Z,10.55
2022-08-26T05:47:32.627Z,9.23
2022-08-26T05:50:05.462Z,10.77
2022-08-26T05:52:33.563Z,9.88
2022-08-26T05:55:01.765Z,9.25
2022-08-26T05:57:30.205Z,9.38
2022-08-26T05:59:58.484Z,8.80
2022-08-26T06:02:26.442Z,9.30
2022-08-26T06:04:54.321Z,9.55
2022-08-26T06:10:32.509Z,9.35
2022-08-26T06:13:04.601Z,8.60
2022-08-26T06:18:15.593Z,9.23
2022-08-26T06:20:57.164Z,7.93
2022-08-26T06:26:16.429Z,9.32
2022-08-26T06:28:45.431Z,9.43
2022-08-26T06:31:14.135Z,9.60
2022-08-26T06:33:42.168Z,8.48
2022-08-26T06:36:10.239Z,8.60
2022-08-26T06:38:39.643Z,8.77
2022-08-26T06:41:12.020Z,8.95
2022-08-26T06:43:39.884Z,8.85
2022-08-26T06:46:11.687Z,8.95
2022-08-26T06:48:40.192Z,9.20
2022-08-26T06:51:11.254Z,9.88
2022-08-26T06:53:41.914Z,8.07
2022-08-26T06:56:11.972Z,8.50
2022-08-26T06:58:40.866Z,8.15
2022-08-26T07:01:16.927Z,8.77
2022-08-26T07:03:46.715Z,8.55
2022-08-26T07:06:15.062Z,9.13
2022-08-26T07:08:45.937Z,8.15
2022-08-26T07:11:15.376Z,9.20
2022-08-26T07:13:43.368Z,9.20
2022-08-26T07:16:14.584Z,9.35
2022-08-26T07:18:44.797Z,9.00
2022-08-26T07:23:43.371Z,9.35
2022-08-26T07:26:16.289Z,9.93
2022-08-26T07:28:44.518Z,9.75
2022-08-26T07:31:14.775Z,10.13
2022-08-26T07:33:43.738Z,9.25
2022-08-26T07:36:13.134Z,9.98
2022-08-26T07:38:42.449Z,10.65
2022-08-26T07:41:13.186Z,10.05
2022-08-26T07:43:41.630Z,9.43
2022-08-26T07:46:13.270Z,8.85
2022-08-26T07:48:45.930Z,9.40
2022-08-26T07:51:14.432Z,9.70
2022-08-26T07:53:42.460Z,10.30
2022-08-26T07:56:10.321Z,9.95
2022-08-26T07:58:40.752Z,10.05
2022-08-26T08:01:10.735Z,9.40
2022-08-26T08:03:38.970Z,9.40
2022-08-26T08:06:07.339Z,9.23
2022-08-26T08:08:37.737Z,9.15
2022-08-26T08:11:05.933Z,9.90
2022-08-26T08:13:33.790Z,9.73
2022-08-26T08:16:03.238Z,9.30
2022-08-26T08:18:31.119Z,9.13
2022-08-26T08:21:21.448Z,8.88
2022-08-26T08:23:49.716Z,9.52
2022-08-26T08:26:17.542Z,8.20
2022-08-26T08:28:47.986Z,8.40
2022-08-26T08:31:52.121Z,8.60
2022-08-26T08:34:10.123Z,8.63
2022-08-26T08:36:37.905Z,8.55
2022-08-26T08:39:06.622Z,8.50
2022-08-26T08:41:53.309Z,8.85
2022-08-26T08:44:31.221Z,8.68
2022-08-26T08:47:06.111Z,9.25
2022-08-26T08:49:35.372Z,9.43
2022-08-26T08:52:11.406Z,8.45
2022-08-26T08:57:13.067Z,8.25
2022-08-26T08:59:53.347Z,8.07
2022-08-26T09:02:31.694Z,8.10
2022-08-26T09:05:07.762Z,8.77
2022-08-26T12:49:39.561Z,6.75
2022-08-26T12:54:56.965Z,6.25
2022-08-26T12:57:29.677Z,6.72
2022-08-26T13:00:28.391Z,5.55
2022-08-26T13:05:27.776Z,5.75
2022-08-26T13:08:16.365Z,5.57
2022-08-26T13:10:46.776Z,5.07
2022-08-26T13:13:15.962Z,6.22
2022-08-26T13:18:12.301Z,7.78
2022-08-26T13:20:44.089Z,7.95
2022-08-26T13:28:08.165Z,8.23
2022-08-26T13:30:37.645Z,7.60
2022-08-26T13:33:06.067Z,8.52
2022-08-26T13:35:34.316Z,9.13
2022-08-26T13:38:02.159Z,8.48
2022-08-26T13:40:34.381Z,8.75
2022-08-26T13:43:02.498Z,8.50
2022-08-26T13:45:30.434Z,8.68
2022-08-26T13:48:00.451Z,8.10
2022-08-26T13:50:28.308Z,8.20
2022-08-26T13:52:56.131Z,8.20
2022-08-26T13:57:52.270Z,7.15
2022-08-26T14:00:20.496Z,7.85
2022-08-26T14:02:48.486Z,7.97
2022-08-26T14:05:17.945Z,8.05
2022-08-26T14:07:45.997Z,7.80
2022-08-26T14:10:13.916Z,6.38
2022-08-26T14:12:42.398Z,6.20
2022-08-26T14:15:11.258Z,7.05
2022-08-26T14:17:40.194Z,6.07
2022-08-26T14:20:12.997Z,6.22
2022-08-26T14:23:03.606Z,6.65
2022-08-26T14:25:34.580Z,6.88
2022-08-26T14:28:02.636Z,7.03
2022-08-26T14:30:30.504Z,7.15
2022-08-26T14:33:00.358Z,5.43
2022-08-26T14:35:29.767Z,6.05
2022-08-26T14:37:59.145Z,6.35
2022-08-26T14:40:31.455Z,6.18
2022-08-26T14:43:02.565Z,5.95
2022-08-26T14:45:43.958Z,5.93
2022-08-26T14:48:12.028Z,5.57
2022-08-26T14:50:40.839Z,5.68
2022-08-26T14:53:27.821Z,9.38
2022-08-26T14:55:55.708Z,7.32
2022-08-26T14:58:23.649Z,5.93
2022-08-26T15:00:51.736Z,6.70
2022-08-26T15:03:19.601Z,6.28
2022-08-26T15:05:48.334Z,6.32
2022-08-26T15:08:18.476Z,5.85
2022-08-26T15:10:46.311Z,6.07
2022-08-26T15:13:14.136Z,5.95
2022-08-26T15:18:10.445Z,6.07
2022-08-26T15:20:38.630Z,5.85
2022-08-26T15:23:07.616Z,5.82
2022-08-26T15:28:06.351Z,7.18
2022-08-26T15:33:02.887Z,6.00
2022-08-26T15:45:46.038Z,5.40
2022-08-26T15:53:19.629Z,4.90
2022-08-26T16:03:13.906Z,5.70
2022-08-26T16:05:44.021Z,5.47
2022-08-26T16:08:12.950Z,5.35
2022-08-26T16:10:47.894Z,10.50
2022-08-26T16:13:21.343Z,6.40
2022-08-26T16:18:20.355Z,5.88
2022-08-26T16:21:08.818Z,5.63
2022-08-26T16:23:44.929Z,6.15
2022-08-26T16:26:15.623Z,5.88
2022-08-26T16:28:45.051Z,5.78
2022-08-26T16:31:13.174Z,5.38
2022-08-26T16:33:41.180Z,6.22
2022-08-26T16:36:10.015Z,5.68
2022-08-26T16:38:39.691Z,5.82
2022-08-26T16:43:37.428Z,5.78
2022-08-26T16:46:08.597Z,5.22
2022-08-26T16:48:36.593Z,5.80
2022-08-26T16:51:04.660Z,5.57
2022-08-26T16:53:33.722Z,5.90
2022-08-26T16:56:01.612Z,5.57
2022-08-26T16:58:29.573Z,5.13
2022-08-26T17:00:57.943Z,5.53
2022-08-26T17:03:27.582Z,5.22
2022-08-26T17:05:55.796Z,5.35
2022-08-26T17:08:27.727Z,5.72
2022-08-26T17:10:56.751Z,6.70
2022-08-26T17:13:35.417Z,5.75
2022-08-26T17:16:06.332Z,6.03
2022-08-26T17:18:36.014Z,5.57
2022-08-26T17:21:06.690Z,5.53
2022-08-26T17:23:35.039Z,5.45
2022-08-26T17:28:30.996Z,5.00
2022-08-26T17:30:59.391Z,4.93
2022-08-26T17:33:28.139Z,4.80
2022-08-26T17:35:57.615Z,5.13
2022-08-26T17:38:27.508Z,5.25
2022-08-26T17:40:55.503Z,4.90
2022-08-26T17:43:23.295Z,4.80
2022-08-26T17:48:19.143Z,5.28
2022-08-26T17:50:49.589Z,7.55
2022-08-26T17:55:48.046Z,5.88
2022-08-26T17:58:16.334Z,5.55
2022-08-26T18:00:45.217Z,5.35
2022-08-26T18:03:13.149Z,5.15
2022-08-26T18:05:41.337Z,4.40
2022-08-26T18:10:38.815Z,5.28
2022-08-26T18:13:06.676Z,6.32
2022-08-26T18:15:35.008Z,6.43
2022-08-26T18:18:02.944Z,5.97
2022-08-26T18:20:30.955Z,6.38
2022-08-26T18:22:58.865Z,6.78
2022-08-26T18:25:27.128Z,8.25
2022-08-26T18:27:56.324Z,7.93
2022-08-26T18:30:24.734Z,7.20
2022-08-26T18:32:53.306Z,5.65
2022-08-26T18:35:22.028Z,4.28
2022-08-26T18:37:49.955Z,5.95
2022-08-26T18:40:17.865Z,4.82
2022-08-26T18:42:45.743Z,4.53
2022-08-26T18:45:18.815Z,4.30
2022-08-26T18:47:46.628Z,3.95
2022-08-26T18:50:15.752Z,4.20
2022-08-26T18:52:43.773Z,4.07
2022-08-26T18:55:11.948Z,3.78
2022-08-26T18:57:39.797Z,4.45
2022-08-26T19:00:09.878Z,3.60
2022-08-26T19:02:39.229Z,3.33
2022-08-26T19:05:08.407Z,3.10
2022-08-26T19:07:39.607Z,3.33
2022-08-26T19:10:08.519Z,2.90
2022-08-26T19:12:36.416Z,3.05
2022-08-26T19:15:05.235Z,3.30
2022-08-26T19:20:03.169Z,3.72
2022-08-26T19:22:31.041Z,3.63
2022-08-26T19:24:58.898Z,3.53
2022-08-26T19:32:25.372Z,4.18
2022-08-26T19:34:53.269Z,3.70
2022-08-26T19:37:23.130Z,3.58
2022-08-26T19:39:51.411Z,3.58
2022-08-26T19:42:19.321Z,3.20
2022-08-26T19:45:04.802Z,3.85
2022-08-26T19:47:32.791Z,3.88
2022-08-26T19:50:01.043Z,3.97
2022-08-26T19:52:31.287Z,5.35
2022-08-26T19:59:55.343Z,4.82
2022-08-26T20:02:23.254Z,5.72
2022-08-26T20:12:18.714Z,5.18
2022-08-26T20:14:46.564Z,5.70
2022-08-26T20:17:16.131Z,4.50
2022-08-26T20:20:01.587Z,5.40
2022-08-26T20:22:29.551Z,5.05
2022-08-26T20:24:58.997Z,6.05
2022-08-26T20:27:37.883Z,5.40
2022-08-26T20:30:08.419Z,5.13
2022-08-26T20:35:05.953Z,5.80
2022-08-26T20:37:34.608Z,6.68
2022-08-26T20:40:04.956Z,6.68
2022-08-26T20:45:00.920Z,6.43
2022-08-26T20:47:29.206Z,7.03
2022-08-26T20:49:57.215Z,6.90
2022-08-26T20:52:25.116Z,6.95
2022-08-26T20:54:52.946Z,7.15
2022-08-26T20:59:51.450Z,7.65
2022-08-26T21:04:47.455Z,7.88
2022-08-26T21:07:15.396Z,7.68
2022-08-26T21:09:45.605Z,7.60
2022-08-26T21:12:13.623Z,7.38
2022-08-26T21:14:46.639Z,7.32
2022-08-26T21:19:44.962Z,7.80
2022-08-26T21:27:08.951Z,6.45
2022-08-26T21:29:37.721Z,7.32
2022-08-26T21:34:35.614Z,7.03
2022-08-26T21:39:31.453Z,6.38
2022-08-26T21:41:59.305Z,7.10
2022-08-26T21:46:56.166Z,6.22
2022-08-26T21:49:26.099Z,7.07
2022-08-26T21:51:55.233Z,7.22
2022-08-26T21:54:23.670Z,6.88
2022-08-26T21:56:51.692Z,6.72
2022-08-26T21:59:19.896Z,6.47
2022-08-26T22:01:48.517Z,6.85
2022-08-26T22:04:17.198Z,7.53
2022-08-26T22:06:48.942Z,6.78
2022-08-26T22:09:18.900Z,6.60
2022-08-26T22:11:47.475Z,6.72
2022-08-26T22:14:16.670Z,6.40
2022-08-26T22:16:50.603Z,6.60
2022-08-26T22:24:19.711Z,6.53
2022-08-26T22:26:48.350Z,7.28
2022-08-26T22:29:16.494Z,6.10
2022-08-26T22:31:44.418Z,6.97
2022-08-26T22:34:15.690Z,6.03
2022-08-26T22:36:46.191Z,5.55
2022-08-26T22:39:17.265Z,5.20
2022-08-26T22:41:46.285Z,5.95
2022-08-26T22:44:14.096Z,5.05
2022-08-26T22:46:43.103Z,4.85
2022-08-26T22:51:44.179Z,4.75
2022-08-26T22:56:42.279Z,4.25
2022-08-26T22:59:10.167Z,4.22
2022-08-26T23:01:39.542Z,4.78
2022-08-26T23:06:38.226Z,4.90
2022-08-26T23:11:35.548Z,4.70
2022-08-26T23:14:06.653Z,5.28
2022-08-26T23:16:39.383Z,4.55
2022-08-26T23:21:36.156Z,4.40
2022-08-26T23:24:04.539Z,4.03
2022-08-26T23:26:32.777Z,4.93
2022-08-26T23:31:30.365Z,4.13
2022-08-26T23:39:12.891Z,4.78
2022-08-26T23:41:40.746Z,5.07
2022-08-26T23:44:08.615Z,5.22
2022-08-26T23:46:37.817Z,4.88
2022-08-26T23:49:06.067Z,5.53
